Time;durP1;ratioP1;P1;durP2;ratioP2;P2;SDS_P1;SDS_P2;PMS_P1;PMS_P2;Temp;Humidity;BMP_temperature;BMP_pressure;BME280_temperature;BME280_humidity;BME280_pressure;Samples;Min_cycle;Max_cycle;Signal;HPM_P1;HPM_P2
2021/01/31 00:00:23;;;;;;;6.00;1.08;;;1.20;99.90;;;;;;5019712;28;20034;-65
2021/01/31 00:02:49;;;;;;;9.85;1.42;;;1.20;99.90;;;;;;5018444;28;20116;-65
2021/01/31 00:05:16;;;;;;;11.70;1.42;;;1.20;99.90;;;;;;5019854;28;20030;-65
2021/01/31 00:07:42;;;;;;;8.57;1.15;;;1.20;99.90;;;;;;5021099;28;20033;-64
2021/01/31 00:10:10;;;;;;;4.57;0.98;;;1.20;99.90;;;;;;5015629;28;20103;-65
2021/01/31 00:12:36;;;;;;;11.00;1.35;;;1.20;99.90;;;;;;5017603;28;20496;-65
2021/01/31 00:15:06;;;;;;;5.40;0.98;;;1.30;99.90;;;;;;5018499;28;20045;-65
2021/01/31 00:17:31;;;;;;;7.07;1.13;;;1.20;99.90;;;;;;5019085;28;20052;-65
2021/01/31 00:19:57;;;;;;;4.18;0.93;;;1.20;99.90;;;;;;5021519;28;20049;-65
2021/01/31 00:22:23;;;;;;;6.85;1.13;;;1.10;99.90;;;;;;5018613;28;20080;-64
2021/01/31 00:24:53;;;;;;;8.50;1.70;;;1.10;99.90;;;;;;5020597;28;20837;-64
2021/01/31 00:27:21;;;;;;;;;;;1.10;99.90;;;;;;5018801;28;20757;-65
2021/01/31 00:29:47;;;;;;;4.25;1.08;;;1.00;99.90;;;;;;5017256;28;20283;-65
2021/01/31 00:32:13;;;;;;;6.70;1.00;;;0.90;99.90;;;;;;5018705;28;20041;-64
2021/01/31 00:34:39;;;;;;;10.38;1.70;;;0.90;99.90;;;;;;5019235;28;20045;-65
2021/01/31 00:37:05;;;;;;;8.40;1.15;;;0.90;99.90;;;;;;5019501;28;20654;-65
2021/01/31 00:39:31;;;;;;;9.50;1.40;;;0.90;99.90;;;;;;5020474;28;20127;-64
2021/01/31 00:41:56;;;;;;;10.80;1.63;;;0.80;99.90;;;;;;5013764;28;20025;-65
2021/01/31 00:44:22;;;;;;;7.53;1.45;;;0.80;99.90;;;;;;5020247;28;20053;-65
2021/01/31 00:46:48;;;;;;;7.75;0.95;;;0.80;99.90;;;;;;5019084;28;20025;-65
2021/01/31 00:49:14;;;;;;;5.47;1.02;;;0.70;99.90;;;;;;5018930;28;20041;-65
2021/01/31 00:51:39;;;;;;;8.50;0.90;;;0.60;99.90;;;;;;5019897;28;20039;-65
2021/01/31 00:54:05;;;;;;;5.30;1.10;;;0.60;99.90;;;;;;5012642;28;20431;-65
2021/01/31 00:56:31;;;;;;;9.48;1.30;;;0.60;99.90;;;;;;5018614;28;20501;-64
2021/01/31 00:58:57;;;;;;;5.55;0.82;;;0.50;99.90;;;;;;5017729;28;20029;-65
2021/01/31 01:01:23;;;;;;;5.97;0.93;;;0.50;99.90;;;;;;5019123;28;20754;-64
2021/01/31 01:03:48;;;;;;;9.13;1.50;;;0.40;99.90;;;;;;5016495;28;20033;-64
2021/01/31 01:06:14;;;;;;;7.40;1.20;;;0.40;99.90;;;;;;5018193;28;20071;-64
2021/01/31 01:08:41;;;;;;;5.80;0.90;;;0.40;99.90;;;;;;5016514;28;20567;-64
2021/01/31 01:11:07;;;;;;;7.82;1.42;;;0.50;99.90;;;;;;5009688;28;20042;-64
2021/01/31 01:13:33;;;;;;;4.40;0.90;;;0.40;99.90;;;;;;5019056;28;20469;-64
2021/01/31 01:15:58;;;;;;;9.25;2.03;;;0.40;99.90;;;;;;5020384;28;20033;-64
2021/01/31 01:18:24;;;;;;;8.27;1.27;;;0.30;99.90;;;;;;5014512;28;20032;-64
2021/01/31 01:20:50;;;;;;;6.95;1.15;;;0.20;99.90;;;;;;5019179;28;20025;-64
2021/01/31 01:23:16;;;;;;;9.82;1.30;;;0.20;99.90;;;;;;5010548;28;20060;-63
2021/01/31 01:25:42;;;;;;;10.10;0.90;;;0.20;99.90;;;;;;5018221;28;20634;-64
2021/01/31 01:28:08;;;;;;;5.03;1.00;;;0.20;99.90;;;;;;5018611;28;20033;-64
2021/01/31 01:30:34;;;;;;;8.82;1.23;;;0.20;99.90;;;;;;5016924;28;20031;-64
2021/01/31 01:33:00;;;;;;;4.65;0.80;;;0.20;99.90;;;;;;5017976;28;20030;-64
2021/01/31 01:35:28;;;;;;;7.45;1.10;;;0.20;99.90;;;;;;5015077;28;20041;-64
2021/01/31 01:37:54;;;;;;;11.73;1.45;;;0.10;99.90;;;;;;5015044;28;20123;-64
2021/01/31 01:40:36;;;;;;;14.73;3.20;;;0.20;99.90;;;;;;5010525;28;20033;-64
2021/01/31 01:43:03;;;;;;;6.65;1.33;;;0.10;99.90;;;;;;5017618;28;20769;-64
2021/01/31 01:45:30;;;;;;;9.55;1.50;;;0.10;99.90;;;;;;5019998;28;20021;-64
2021/01/31 01:48:04;;;;;;;11.98;1.08;;;0.20;99.90;;;;;;5017495;28;20052;-64
2021/01/31 01:50:49;;;;;;;9.55;1.27;;;0.20;99.90;;;;;;5018834;28;20052;-63
2021/01/31 01:53:16;;;;;;;3.83;1.05;;;0.20;99.90;;;;;;5018259;28;20052;-64
2021/01/31 01:55:56;;;;;;;6.97;1.00;;;0.20;99.90;;;;;;5017180;28;21168;-63
2021/01/31 01:58:23;;;;;;;8.93;1.42;;;0.20;99.90;;;;;;5016489;28;20116;-64
2021/01/31 02:00:49;;;;;;;7.82;1.30;;;0.20;99.90;;;;;;5017521;28;20144;-64
2021/01/31 02:03:28;;;;;;;9.23;1.00;;;0.10;99.90;;;;;;5015560;28;20044;-64
2021/01/31 02:06:14;;;;;;;5.82;0.95;;;0.10;99.90;;;;;;5014180;28;20037;-64
2021/01/31 02:08:41;;;;;;;7.53;0.75;;;0.10;99.90;;;;;;5011789;28;20527;-64
2021/01/31 02:11:08;;;;;;;3.22;1.02;;;0.20;99.90;;;;;;5017118;28;20081;-63
2021/01/31 02:13:36;;;;;;;5.85;1.35;;;0.10;99.90;;;;;;5014675;28;20037;-64
2021/01/31 02:16:06;;;;;;;4.65;0.90;;;0.10;99.90;;;;;;5018431;28;20041;-64
2021/01/31 02:18:46;;;;;;;8.63;1.17;;;0.10;99.90;;;;;;5017340;28;20029;-64
2021/01/31 02:21:20;;;;;;;4.22;0.90;;;0.10;99.90;;;;;;5016363;28;20107;-64
2021/01/31 02:24:22;;;;;;;6.10;1.20;;;0.10;99.90;;;;;;5016552;28;20025;-64
2021/01/31 02:27:18;;;;;;;6.93;0.95;;;0.10;99.90;;;;;;5017128;28;20055;-64
2021/01/31 02:30:12;;;;;;;7.22;0.93;;;0.10;99.90;;;;;;5015665;28;20033;-64
2021/01/31 02:32:44;;;;;;;9.70;1.15;;;0.20;99.90;;;;;;5017298;28;20516;-64
2021/01/31 02:35:15;;;;;;;5.15;1.65;;;0.30;99.90;;;;;;5015053;28;20041;-64
2021/01/31 02:38:10;;;;;;;12.07;1.60;;;0.30;99.90;;;;;;5018151;28;20504;-64
2021/01/31 02:41:01;;;;;;;9.30;3.38;;;0.20;99.90;;;;;;5016687;28;20041;-64
2021/01/31 02:43:40;;;;;;;15.27;1.40;;;0.30;99.90;;;;;;5015203;28;20029;-64
2021/01/31 02:46:26;;;;;;;12.82;1.65;;;0.30;99.90;;;;;;5017020;28;20440;-64
2021/01/31 02:49:02;;;;;;;12.57;2.03;;;0.30;99.90;;;;;;5016017;28;20041;-64
2021/01/31 02:51:41;;;;;;;7.38;1.17;;;0.40;99.90;;;;;;5016698;28;20025;-64
2021/01/31 02:54:14;;;;;;;11.50;1.50;;;0.40;99.90;;;;;;5013183;28;20033;-64
2021/01/31 02:57:04;;;;;;;8.85;1.70;;;0.40;99.90;;;;;;5015187;28;20104;-63
2021/01/31 02:59:33;;;;;;;;;;;0.40;99.90;;;;;;5018118;28;20029;-64
2021/01/31 03:02:04;;;;;;;9.93;1.67;;;0.50;99.90;;;;;;5016037;28;19985;-64
2021/01/31 03:04:38;;;;;;;13.70;2.00;;;0.50;99.90;;;;;;5016267;28;20116;-64
2021/01/31 03:07:15;;;;;;;13.02;3.53;;;0.60;99.90;;;;;;5018346;28;20095;-63
2021/01/31 03:09:51;;;;;;;10.30;1.45;;;0.70;99.90;;;;;;5015785;28;20029;-66
2021/01/31 03:12:23;;;;;;;14.05;1.90;;;0.70;99.90;;;;;;5017308;28;20115;-64
2021/01/31 03:14:59;;;;;;;9.70;1.67;;;0.70;99.90;;;;;;5017055;28;20044;-64
2021/01/31 03:17:36;;;;;;;10.85;2.35;;;0.70;99.90;;;;;;5011027;28;20030;-64
2021/01/31 03:20:08;;;;;;;17.27;2.92;;;0.70;99.90;;;;;;5020592;28;20083;-64
2021/01/31 03:22:52;;;;;;;11.75;2.15;;;0.70;99.90;;;;;;5021270;28;20039;-65
2021/01/31 03:25:25;;;;;;;10.57;1.77;;;0.80;99.90;;;;;;5018110;28;20025;-64
2021/01/31 03:27:51;;;;;;;9.25;2.25;;;0.80;99.90;;;;;;5020947;28;20033;-64
2021/01/31 03:30:17;;;;;;;9.73;1.95;;;0.80;99.90;;;;;;5019777;28;20096;-64
2021/01/31 03:33:04;;;;;;;10.90;2.50;;;0.70;99.90;;;;;;5020604;28;20541;-65
2021/01/31 03:35:36;;;;;;;6.80;1.52;;;0.70;99.90;;;;;;5020322;28;20041;-64
2021/01/31 03:38:22;;;;;;;12.38;1.73;;;0.80;99.90;;;;;;5019208;28;20040;-64
2021/01/31 03:40:51;;;;;;;10.63;1.83;;;0.80;99.90;;;;;;5019363;28;20038;-64
2021/01/31 03:43:17;;;;;;;16.67;2.50;;;0.80;99.90;;;;;;5020195;28;20029;-65
2021/01/31 03:46:18;;;;;;;13.23;1.98;;;0.80;99.90;;;;;;5012188;28;20034;-64
2021/01/31 03:49:16;;;;;;;10.32;1.92;;;0.80;99.90;;;;;;5020061;28;20056;-64
2021/01/31 03:51:42;;;;;;;11.23;1.90;;;0.70;99.90;;;;;;5020149;28;20033;-64
2021/01/31 03:54:09;;;;;;;18.80;1.73;;;0.70;99.90;;;;;;5021058;28;20048;-64
2021/01/31 03:56:57;;;;;;;13.27;2.15;;;0.70;99.90;;;;;;5020118;28;20030;-64
2021/01/31 03:59:37;;;;;;;11.57;1.95;;;0.70;99.90;;;;;;5020062;28;20116;-64
2021/01/31 04:02:06;;;;;;;7.85;1.83;;;0.70;99.90;;;;;;5018654;28;20492;-64
2021/01/31 04:04:49;;;;;;;11.13;2.75;;;0.70;99.90;;;;;;5019329;28;20448;-63
2021/01/31 04:07:32;;;;;;;7.63;1.40;;;0.60;99.90;;;;;;5019128;28;20751;-64
2021/01/31 04:10:01;;;;;;;16.25;1.98;;;0.60;99.90;;;;;;5022202;28;20021;-64
2021/01/31 04:12:31;;;;;;;8.23;1.67;;;0.50;99.90;;;;;;5015816;28;20476;-64
2021/01/31 04:15:06;;;;;;;7.75;1.65;;;0.50;99.90;;;;;;5016865;28;20556;-64
2021/01/31 04:17:32;;;;;;;6.60;1.40;;;0.50;99.90;;;;;;5019758;28;20037;-64
2021/01/31 04:19:58;;;;;;;6.95;2.80;;;0.40;99.90;;;;;;5019209;28;20030;-64
2021/01/31 04:22:23;;;;;;;11.43;1.70;;;0.40;99.90;;;;;;5018168;28;20110;-64
2021/01/31 04:24:49;;;;;;;13.07;1.60;;;0.30;99.90;;;;;;5018084;28;20033;-64
2021/01/31 04:27:15;;;;;;;10.38;2.03;;;0.20;99.90;;;;;;5018223;28;20689;-64
2021/01/31 04:29:41;;;;;;;11.32;1.45;;;0.10;99.90;;;;;;5019280;28;20151;-64
2021/01/31 04:32:07;;;;;;;10.43;1.60;;;0.10;99.90;;;;;;5016358;28;20084;-64
2021/01/31 04:34:33;;;;;;;5.60;1.25;;;0.00;99.90;;;;;;5017117;28;20223;-63
2021/01/31 04:36:59;;;;;;;12.10;2.45;;;-0.10;99.90;;;;;;5019541;28;20068;-64
2021/01/31 04:39:25;;;;;;;6.88;1.58;;;0.00;99.90;;;;;;5018222;28;20374;-63
2021/01/31 04:41:51;;;;;;;8.07;1.17;;;0.00;99.90;;;;;;5013009;28;20038;-63
2021/01/31 04:44:19;;;;;;;6.82;1.45;;;-0.10;99.90;;;;;;5018576;28;20033;-63
2021/01/31 04:47:12;;;;;;;5.88;1.83;;;-0.10;99.90;;;;;;5019908;28;20045;-64
2021/01/31 04:50:00;;;;;;;12.13;1.25;;;-0.10;99.90;;;;;;5019848;28;20103;-63
2021/01/31 04:52:48;;;;;;;9.10;1.60;;;0.00;99.90;;;;;;5020137;28;20048;-63
2021/01/31 04:55:24;;;;;;;8.10;1.67;;;0.00;99.90;;;;;;5017294;28;20103;-64
2021/01/31 04:58:05;;;;;;;8.95;1.65;;;-0.10;99.90;;;;;;5018619;28;20224;-64
2021/01/31 05:00:35;;;;;;;9.57;2.08;;;-0.10;99.90;;;;;;5019097;28;20026;-64
2021/01/31 05:03:02;;;;;;;;;;;-0.10;99.90;;;;;;5016417;28;20025;-63
2021/01/31 05:05:43;;;;;;;6.18;1.30;;;-0.10;99.90;;;;;;5017432;28;19913;-64
2021/01/31 05:08:20;;;;;;;8.85;1.40;;;-0.10;99.90;;;;;;5017888;28;20053;-63
2021/01/31 05:10:50;;;;;;;27.05;3.30;;;-0.10;99.90;;;;;;5018509;28;20033;-64
2021/01/31 05:13:44;;;;;;;8.30;1.80;;;-0.10;99.90;;;;;;5016587;28;21017;-64
2021/01/31 05:16:14;;;;;;;11.73;1.77;;;-0.10;99.90;;;;;;5018540;28;20029;-64
2021/01/31 05:18:45;;;;;;;4.60;1.67;;;0.00;99.90;;;;;;5019251;28;20033;-64
2021/01/31 05:21:14;;;;;;;10.43;1.58;;;0.00;99.90;;;;;;5017593;28;20676;-63
2021/01/31 05:23:43;;;;;;;6.97;2.03;;;0.10;99.90;;;;;;5015613;28;20041;-64
2021/01/31 05:26:11;;;;;;;8.90;2.33;;;0.10;99.90;;;;;;5017137;28;20022;-63
2021/01/31 05:28:42;;;;;;;8.35;1.17;;;0.10;99.90;;;;;;5018522;28;20021;-63
2021/01/31 05:31:12;;;;;;;10.95;1.73;;;0.20;99.90;;;;;;5013835;28;20056;-64
2021/01/31 05:33:51;;;;;;;7.80;1.50;;;0.30;99.90;;;;;;5018215;28;20270;-63
2021/01/31 05:36:19;;;;;;;5.28;0.93;;;0.30;99.90;;;;;;5018133;28;20120;-64
2021/01/31 05:38:47;;;;;;;10.30;1.48;;;0.40;99.90;;;;;;5017095;28;20092;-63
2021/01/31 05:41:34;;;;;;;8.20;1.10;;;0.40;99.90;;;;;;5015205;28;20037;-64
2021/01/31 05:44:09;;;;;;;10.18;1.35;;;0.40;99.90;;;;;;5015375;28;20116;-63
2021/01/31 05:46:57;;;;;;;20.83;2.67;;;0.40;99.90;;;;;;5018795;28;20554;-64
2021/01/31 05:49:38;;;;;;;15.18;2.08;;;0.40;99.90;;;;;;5016736;28;20055;-63
2021/01/31 05:52:20;;;;;;;10.27;1.27;;;0.40;99.90;;;;;;5019817;28;20516;-64
2021/01/31 05:54:50;;;;;;;10.75;1.42;;;0.40;99.90;;;;;;5012985;28;20191;-66
2021/01/31 05:57:29;;;;;;;12.00;1.27;;;0.50;99.90;;;;;;5018333;28;20087;-64
2021/01/31 05:59:56;;;;;;;6.38;1.45;;;0.40;99.90;;;;;;5016271;28;20310;-65
2021/01/31 06:02:29;;;;;;;11.70;1.75;;;0.50;99.90;;;;;;5019753;28;20638;-63
2021/01/31 06:05:17;;;;;;;11.77;1.58;;;0.60;99.90;;;;;;5016622;28;20040;-63
2021/01/31 06:07:44;;;;;;;10.00;1.20;;;0.60;99.90;;;;;;5018068;28;20049;-64
2021/01/31 06:10:16;;;;;;;9.52;1.60;;;0.60;99.90;;;;;;5016957;28;20116;-64
2021/01/31 06:12:48;;;;;;;9.93;1.30;;;0.70;99.90;;;;;;5016906;28;20119;-64
2021/01/31 06:15:23;;;;;;;11.65;2.22;;;0.80;99.90;;;;;;5017306;28;20162;-63
2021/01/31 06:18:02;;;;;;;14.43;1.63;;;0.90;99.90;;;;;;5017314;28;20030;-64
2021/01/31 06:20:33;;;;;;;15.20;1.80;;;0.90;99.90;;;;;;5016602;28;20099;-63
2021/01/31 06:22:59;;;;;;;7.82;1.48;;;0.90;99.90;;;;;;5016110;28;20455;-64
2021/01/31 06:25:27;;;;;;;11.20;1.73;;;0.90;99.90;;;;;;5017295;28;20029;-64
2021/01/31 06:27:57;;;;;;;10.38;2.78;;;0.90;99.90;;;;;;5013616;28;20033;-64
2021/01/31 06:30:31;;;;;;;11.32;1.52;;;1.00;99.90;;;;;;5015355;28;20052;-64
2021/01/31 06:32:57;;;;;;;15.40;1.75;;;1.00;99.90;;;;;;5014785;28;20072;-64
2021/01/31 06:35:25;;;;;;;15.15;1.88;;;1.00;99.90;;;;;;5017924;28;20484;-65
2021/01/31 06:38:34;;;;;;;11.38;1.42;;;1.00;99.90;;;;;;5014987;28;20499;-64
2021/01/31 06:41:28;;;;;;;17.83;2.38;;;1.00;99.90;;;;;;5017223;28;20392;-64
2021/01/31 06:44:06;;;;;;;11.77;2.35;;;0.90;99.90;;;;;;5016505;28;20040;-64
2021/01/31 06:46:50;;;;;;;10.35;1.40;;;0.90;99.90;;;;;;5010917;28;20042;-64
2021/01/31 06:49:49;;;;;;;10.18;1.88;;;0.80;99.90;;;;;;5016238;28;20033;-64
2021/01/31 06:52:45;;;;;;;6.50;1.10;;;0.80;99.90;;;;;;5012934;28;20091;-64
2021/01/31 06:55:51;;;;;;;8.85;1.23;;;0.60;99.90;;;;;;5012585;28;20049;-64
2021/01/31 06:58:36;;;;;;;10.95;2.03;;;0.50;99.90;;;;;;5004292;28;20734;-64
2021/01/31 07:01:14;;;;;;;8.63;1.55;;;0.50;99.90;;;;;;5008339;28;20037;-64
2021/01/31 07:04:12;;;;;;;7.60;1.38;;;0.40;99.90;;;;;;5009183;28;20033;-64
2021/01/31 07:06:50;;;;;;;11.05;1.60;;;0.40;99.90;;;;;;5014803;28;20033;-64
2021/01/31 07:09:28;;;;;;;10.52;1.60;;;0.40;99.90;;;;;;5010765;28;20754;-64
2021/01/31 07:12:19;;;;;;;10.10;2.42;;;0.50;99.90;;;;;;5012216;28;20034;-64
2021/01/31 07:14:59;;;;;;;9.30;1.88;;;0.60;99.90;;;;;;5009558;28;20056;-64
2021/01/31 07:17:28;;;;;;;;;;;0.70;99.90;;;;;;5013439;28;20116;-63
2021/01/31 07:20:06;;;;;;;13.90;1.98;;;0.70;99.90;;;;;;5012319;28;19917;-63
2021/01/31 07:22:39;;;;;;;17.17;2.10;;;0.70;99.90;;;;;;5011167;28;20636;-64
2021/01/31 07:25:10;;;;;;;6.57;1.38;;;0.80;99.90;;;;;;5012917;28;20030;-64
2021/01/31 07:27:48;;;;;;;11.35;1.70;;;0.70;99.90;;;;;;5017539;28;20033;-64
2021/01/31 07:30:31;;;;;;;6.68;1.30;;;0.80;99.90;;;;;;5014839;28;20037;-63
2021/01/31 07:33:12;;;;;;;8.25;1.58;;;0.70;99.90;;;;;;5012048;28;20061;-64
2021/01/31 07:35:46;;;;;;;;;;;0.70;99.90;;;;;;5014037;28;20041;-63
2021/01/31 07:38:20;;;;;;;5.82;1.77;;;0.80;99.90;;;;;;5016928;28;20852;-64
2021/01/31 07:40:52;;;;;;;8.65;1.35;;;0.80;99.90;;;;;;5017111;28;20029;-63
2021/01/31 07:43:19;;;;;;;5.50;1.10;;;0.90;99.90;;;;;;5011699;28;20060;-65
2021/01/31 07:45:45;;;;;;;7.35;1.90;;;1.00;99.90;;;;;;5015614;28;20022;-65
2021/01/31 07:48:30;;;;;;;11.95;1.73;;;1.00;99.90;;;;;;5015845;28;20065;-65
2021/01/31 07:50:56;;;;;;;6.95;1.17;;;1.00;99.90;;;;;;5016580;28;20045;-65
2021/01/31 07:53:37;;;;;;;12.63;1.40;;;1.00;99.90;;;;;;5010675;28;20025;-65
2021/01/31 07:56:27;;;;;;;18.95;2.72;;;0.90;99.90;;;;;;5017290;28;20509;-64
2021/01/31 07:58:54;;;;;;;10.32;1.52;;;0.90;99.90;;;;;;5016028;28;20085;-65
2021/01/31 08:01:39;;;;;;;12.48;1.75;;;0.90;99.90;;;;;;5010242;28;20053;-65
2021/01/31 08:04:34;;;;;;;9.95;1.55;;;0.90;99.90;;;;;;5000246;28;20029;-65
2021/01/31 08:07:02;;;;;;;15.82;3.08;;;1.10;99.90;;;;;;5020459;28;20068;-64
2021/01/31 08:09:31;;;;;;;9.75;2.08;;;1.20;99.90;;;;;;5009735;28;20116;-65
2021/01/31 08:12:14;;;;;;;9.38;1.92;;;1.80;99.90;;;;;;5013654;28;20388;-65
2021/01/31 08:15:08;;;;;;;20.23;2.35;;;2.80;99.90;;;;;;5014468;28;20955;-66
2021/01/31 08:17:46;;;;;;;16.65;3.90;;;3.90;99.90;;;;;;5018838;28;20512;-66
2021/01/31 08:20:40;;;;;;;7.38;1.55;;;4.60;99.90;;;;;;5012808;28;20610;-63
2021/01/31 08:23:11;;;;;;;8.77;1.95;;;5.10;99.90;;;;;;5010651;28;20813;-64
2021/01/31 08:25:55;;;;;;;9.05;1.50;;;5.10;99.90;;;;;;5018096;28;20025;-64
2021/01/31 08:28:32;;;;;;;13.27;1.77;;;4.80;99.90;;;;;;5012630;28;20107;-63
2021/01/31 08:31:04;;;;;;;11.30;1.80;;;4.50;99.90;;;;;;5013938;28;20748;-63
2021/01/31 08:33:34;;;;;;;10.00;1.35;;;4.30;99.90;;;;;;5010754;28;20037;-63
2021/01/31 08:36:06;;;;;;;6.68;1.25;;;4.00;99.90;;;;;;5014142;28;20901;-63
2021/01/31 08:38:45;;;;;;;10.77;1.70;;;3.80;99.90;;;;;;5015782;28;20032;-62
2021/01/31 08:41:29;;;;;;;8.65;1.75;;;3.60;99.90;;;;;;5012364;28;20095;-63
2021/01/31 08:44:10;;;;;;;15.68;2.22;;;3.50;99.90;;;;;;5016171;28;20479;-63
2021/01/31 08:46:54;;;;;;;15.65;2.10;;;3.50;99.90;;;;;;5007083;28;20034;-63
2021/01/31 08:49:20;;;;;;;15.30;1.83;;;3.40;99.90;;;;;;5016696;28;20044;-63
2021/01/31 08:52:03;;;;;;;4.45;1.25;;;3.20;99.90;;;;;;5013740;28;20045;-65
2021/01/31 08:54:29;;;;;;;16.27;1.90;;;3.10;99.90;;;;;;5012853;28;20530;-64
2021/01/31 08:57:11;;;;;;;13.90;1.85;;;3.00;99.90;;;;;;5014042;28;20021;-63
2021/01/31 08:59:44;;;;;;;13.35;2.00;;;3.10;99.90;;;;;;5012242;28;20042;-64
2021/01/31 09:02:19;;;;;;;13.20;3.38;;;3.00;99.90;;;;;;5011496;28;20144;-63
2021/01/31 09:04:46;;;;;;;12.48;2.20;;;2.80;99.90;;;;;;5011418;28;20026;-64
2021/01/31 09:07:33;;;;;;;14.32;2.65;;;2.80;99.90;;;;;;5017510;28;20574;-66
2021/01/31 09:10:12;;;;;;;9.68;1.67;;;2.90;99.90;;;;;;5014814;28;20044;-65
2021/01/31 09:12:38;;;;;;;12.05;2.22;;;3.00;99.90;;;;;;5013742;28;20021;-62
2021/01/31 09:15:32;;;;;;;12.20;2.33;;;3.60;99.90;;;;;;5015582;28;20041;-63
2021/01/31 09:18:06;;;;;;;16.95;2.00;;;5.20;99.90;;;;;;5014161;28;20037;-63
2021/01/31 09:20:32;;;;;;;12.80;2.92;;;5.80;99.90;;;;;;5012338;28;20029;-63
2021/01/31 09:23:13;;;;;;;13.10;3.03;;;5.50;99.90;;;;;;5010465;28;20040;-63
2021/01/31 09:25:39;;;;;;;11.18;2.33;;;5.00;99.90;;;;;;5011827;28;20236;-63
2021/01/31 09:28:08;;;;;;;8.40;2.35;;;4.60;99.90;;;;;;5013358;28;20037;-65
2021/01/31 09:30:35;;;;;;;9.18;2.20;;;4.40;99.90;;;;;;5012509;28;20038;-65
2021/01/31 09:33:29;;;;;;;9.52;2.42;;;4.20;99.90;;;;;;5008562;28;20045;-65
2021/01/31 09:35:55;;;;;;;9.73;1.77;;;4.10;99.90;;;;;;5011516;28;20049;-65
2021/01/31 09:38:28;;;;;;;7.05;1.80;;;4.00;99.90;;;;;;5014992;28;20670;-65
2021/01/31 09:40:56;;;;;;;6.03;1.55;;;4.30;99.90;;;;;;5014951;28;20769;-65
2021/01/31 09:43:26;;;;;;;7.13;2.22;;;4.60;99.90;;;;;;5015541;28;20021;-65
2021/01/31 09:45:55;;;;;;;13.32;3.58;;;5.00;99.90;;;;;;5016141;28;20041;-64
2021/01/31 09:48:26;;;;;;;12.73;3.30;;;5.80;99.90;;;;;;5015335;28;20049;-64
2021/01/31 09:51:00;;;;;;;12.60;2.72;;;5.90;99.90;;;;;;5018390;28;20075;-64
2021/01/31 09:53:26;;;;;;;6.53;1.40;;;5.30;99.90;;;;;;5014411;28;20083;-64
2021/01/31 09:55:52;;;;;;;8.57;1.65;;;4.70;99.90;;;;;;5017390;28;20770;-63
2021/01/31 09:58:24;;;;;;;6.70;0.90;;;4.30;99.90;;;;;;5015771;28;20033;-64
2021/01/31 10:00:51;;;;;;;6.50;1.00;;;4.00;99.90;;;;;;5012552;28;20046;-63
2021/01/31 10:03:28;;;;;;;3.65;0.90;;;3.90;99.90;;;;;;5006203;28;20029;-64
2021/01/31 10:06:11;;;;;;;7.75;0.85;;;3.80;99.90;;;;;;5012230;28;20068;-64
2021/01/31 10:08:40;;;;;;;7.10;0.93;;;3.80;99.90;;;;;;5011958;28;20468;-64
2021/01/31 10:11:30;;;;;;;4.25;0.60;;;4.40;99.90;;;;;;5012410;28;20485;-64
2021/01/31 10:13:57;;;;;;;0.77;0.40;;;6.20;99.90;;;;;;5012515;28;20049;-64
2021/01/31 10:16:27;;;;;;;2.47;0.60;;;7.20;99.90;;;;;;5015844;28;20107;-64
2021/01/31 10:19:04;;;;;;;4.05;0.30;;;6.80;99.90;;;;;;5013029;28;20128;-66
2021/01/31 10:21:36;;;;;;;1.40;0.55;;;5.90;99.90;;;;;;5014517;28;20777;-64
2021/01/31 10:24:10;;;;;;;2.08;0.40;;;4.90;99.90;;;;;;5015647;28;20030;-64
2021/01/31 10:26:36;;;;;;;3.70;0.43;;;4.30;99.90;;;;;;5010143;28;20472;-64
2021/01/31 10:29:04;;;;;;;0.52;0.40;;;3.80;99.90;;;;;;5015007;28;20037;-64
2021/01/31 10:31:36;;;;;;;1.27;0.30;;;3.60;99.90;;;;;;5014371;28;20034;-64
2021/01/31 10:34:12;;;;;;;2.03;0.70;;;3.40;99.90;;;;;;5007489;28;20076;-64
2021/01/31 10:36:41;;;;;;;1.17;0.40;;;3.40;99.90;;;;;;5015133;28;20870;-64
2021/01/31 10:39:10;;;;;;;2.58;0.50;;;3.80;99.90;;;;;;5013368;28;20029;-63
2021/01/31 10:41:37;;;;;;;2.05;0.50;;;4.10;99.90;;;;;;5011389;28;20037;-64
2021/01/31 10:44:09;;;;;;;0.70;0.60;;;4.20;99.90;;;;;;5011151;28;20037;-65
2021/01/31 10:46:36;;;;;;;1.20;0.57;;;4.10;99.90;;;;;;5009946;28;20033;-64
2021/01/31 10:49:03;;;;;;;3.05;0.93;;;4.20;99.90;;;;;;5012841;28;20052;-65
2021/01/31 10:51:32;;;;;;;3.50;1.55;;;5.00;99.90;;;;;;5014252;28;20116;-64
2021/01/31 10:53:59;;;;;;;3.13;0.70;;;6.40;99.90;;;;;;5014103;28;20107;-65
2021/01/31 10:56:25;;;;;;;3.47;0.68;;;8.30;99.90;;;;;;5011682;28;20047;-64
2021/01/31 10:58:52;;;;;;;1.05;0.60;;;9.80;99.90;;;;;;5010678;28;20769;-64
2021/01/31 11:01:18;;;;;;;3.33;0.70;;;11.20;99.90;;;;;;5009790;28;20022;-65
2021/01/31 11:03:45;;;;;;;5.82;2.40;;;12.60;99.90;;;;;;5010155;28;20029;-65
2021/01/31 11:06:11;;;;;;;2.53;1.05;;;13.70;99.90;;;;;;5010806;28;20033;-65
2021/01/31 11:08:36;;;;;;;19.58;12.32;;;14.10;99.90;;;;;;5009354;28;20484;-65
2021/01/31 11:11:02;;;;;;;1.73;0.70;;;14.50;99.90;;;;;;5012486;28;20038;-64
2021/01/31 11:13:28;;;;;;;7.32;4.35;;;14.60;99.90;;;;;;5012364;28;20026;-64
2021/01/31 11:15:54;;;;;;;9.40;4.63;;;14.80;99.90;;;;;;5006953;28;20052;-64
2021/01/31 11:18:21;;;;;;;3.22;1.75;;;14.90;99.90;;;;;;5011710;28;20669;-64
2021/01/31 11:20:47;;;;;;;7.35;1.67;;;14.90;99.90;;;;;;5011497;28;20116;-64
2021/01/31 11:23:14;;;;;;;4.95;1.33;;;15.10;98.20;;;;;;5007226;28;20045;-64
2021/01/31 11:25:40;;;;;;;4.82;1.05;;;14.80;99.60;;;;;;5008317;28;20033;-64
2021/01/31 11:28:05;;;;;;;2.83;0.75;;;14.80;97.80;;;;;;5008017;28;20026;-63
2021/01/31 11:30:31;;;;;;;3.17;0.98;;;14.40;99.20;;;;;;5013516;28;20758;-64
2021/01/31 11:32:59;;;;;;;6.50;0.93;;;14.50;98.90;;;;;;5011059;28;20041;-64
2021/01/31 11:35:25;;;;;;;2.70;0.90;;;14.50;98.90;;;;;;5015440;28;20057;-63
2021/01/31 11:37:51;;;;;;;3.88;0.98;;;14.20;98.00;;;;;;5014822;28;20104;-63
2021/01/31 11:40:18;;;;;;;1.80;0.95;;;14.30;99.90;;;;;;5021333;28;20033;-63
2021/01/31 11:42:44;;;;;;;3.90;1.02;;;14.20;99.20;;;;;;5017615;28;20037;-63
2021/01/31 11:45:11;;;;;;;5.57;0.90;;;14.20;99.90;;;;;;5019038;28;20040;-64
2021/01/31 11:47:39;;;;;;;3.33;0.90;;;14.40;99.50;;;;;;5018601;28;20041;-64
2021/01/31 11:50:07;;;;;;;3.97;0.90;;;14.30;99.90;;;;;;5019954;28;20029;-63
2021/01/31 11:52:33;;;;;;;6.28;1.27;;;14.00;99.90;;;;;;5016854;28;20037;-63
2021/01/31 11:54:59;;;;;;;4.75;1.00;;;14.00;99.90;;;;;;5018015;28;20037;-63
2021/01/31 11:57:25;;;;;;;7.80;1.10;;;14.00;99.90;;;;;;5013817;28;20029;-63
2021/01/31 11:59:50;;;;;;;3.05;0.70;;;14.20;99.90;;;;;;5019174;28;20554;-63
2021/01/31 12:02:16;;;;;;;4.63;0.50;;;14.10;98.30;;;;;;5018657;28;20095;-64
2021/01/31 12:04:43;;;;;;;2.08;0.65;;;14.50;98.50;;;;;;5018701;28;20029;-63
2021/01/31 12:07:09;;;;;;;3.33;0.50;;;14.50;97.70;;;;;;5012865;28;20040;-64
2021/01/31 12:09:35;;;;;;;1.00;0.40;;;14.20;97.90;;;;;;5013971;28;20160;-62
2021/01/31 12:12:01;;;;;;;3.83;0.70;;;13.70;98.90;;;;;;5013791;28;22052;-69
2021/01/31 12:14:27;;;;;;;5.38;0.90;;;13.20;99.30;;;;;;5018891;28;20037;-69
2021/01/31 12:16:53;;;;;;;4.30;1.08;;;13.40;99.90;;;;;;5019720;28;20039;-69
2021/01/31 12:19:21;;;;;;;4.97;1.00;;;14.20;99.70;;;;;;5017749;28;20049;-70
2021/01/31 12:21:47;;;;;;;4.45;0.70;;;14.20;98.40;;;;;;5017604;28;20556;-70
2021/01/31 12:24:13;;;;;;;3.15;0.50;;;14.30;99.90;;;;;;5017484;28;20044;-70
2021/01/31 12:26:39;;;;;;;4.60;0.80;;;14.90;99.20;;;;;;5017750;28;20037;-70
2021/01/31 12:29:05;;;;;;;5.57;0.93;;;14.70;98.20;;;;;;5018547;28;20123;-70
2021/01/31 12:31:31;;;;;;;2.88;0.70;;;14.10;98.90;;;;;;5018424;28;20396;-69
2021/01/31 12:33:56;;;;;;;2.70;0.47;;;12.90;99.90;;;;;;5015121;28;20029;-70
2021/01/31 12:36:22;;;;;;;3.80;0.80;;;11.30;99.90;;;;;;5021041;28;20029;-70
2021/01/31 12:38:48;;;;;;;2.30;0.98;;;11.00;99.90;;;;;;5019766;28;20060;-70
2021/01/31 12:41:14;;;;;;;3.00;0.73;;;11.70;99.90;;;;;;5020537;28;20042;-70
2021/01/31 12:43:40;;;;;;;1.73;0.50;;;12.40;99.90;;;;;;5018703;28;20072;-70
2021/01/31 12:46:05;;;;;;;2.03;0.60;;;13.30;99.90;;;;;;5020120;28;20030;-69
2021/01/31 12:48:31;;;;;;;8.98;1.00;;;14.10;99.90;;;;;;5020412;28;20052;-70
2021/01/31 12:50:57;;;;;;;2.28;0.60;;;14.30;99.90;;;;;;5011671;28;20061;-70
2021/01/31 12:53:23;;;;;;;1.08;0.35;;;14.00;99.90;;;;;;5009901;28;20060;-69
2021/01/31 12:55:49;;;;;;;2.60;0.80;;;13.80;99.10;;;;;;5017508;28;20069;-68
2021/01/31 12:58:15;;;;;;;4.18;0.95;;;14.00;99.90;;;;;;5008532;28;20061;-69
2021/01/31 13:00:40;;;;;;;1.85;0.60;;;14.10;99.60;;;;;;5014500;28;20033;-69
2021/01/31 13:03:07;;;;;;;3.10;1.00;;;14.00;99.70;;;;;;5013748;28;20099;-68
2021/01/31 13:05:33;;;;;;;3.65;0.65;;;14.40;99.90;;;;;;5009891;28;20029;-68
2021/01/31 13:08:00;;;;;;;3.83;0.60;;;15.20;99.90;;;;;;5015715;28;20032;-68
2021/01/31 13:10:27;;;;;;;3.65;0.80;;;15.90;99.00;;;;;;5016173;28;20025;-68
2021/01/31 13:12:53;;;;;;;2.53;0.52;;;16.30;98.00;;;;;;5014800;28;20061;-69
2021/01/31 13:15:19;;;;;;;6.85;2.92;;;17.10;95.40;;;;;;5014372;28;20465;-69
2021/01/31 13:17:45;;;;;;;5.63;2.72;;;17.50;93.00;;;;;;5012418;28;20029;-69
2021/01/31 13:20:13;;;;;;;5.28;1.63;;;17.70;94.00;;;;;;5014345;28;20091;-69